Station Historical Data
Daily Summary for February 20, 2018 Units:  English    Metric   Both
« Previous Day
Next Day »
Daily Weekly Monthly Yearly Custom
  High: Low: Average:
Temperature: 67.4 °F 51.7 °F 59.8 °F
Dew Point: 58.9 °F 49.7 °F 54.9 °F
Humidity: 94% 63% 84%
Wind Speed: 14.0mph 0.0mph 4.5mph
Wind Gust: 26.0mph - -
Wind- - SSW
Pressure: 30.09 in 30.02 in -
Precipitation: 0.00 in    
Historical Graphs
 
 
Tabular Data for February 20, 2018
Time Temperature Dew Point Pressure Wind Wind Speed Wind Gust Humidity Rainfall Rate (Hourly)
00:04 57.6 °F 54.7 °F 30.05 in SW 4.0 mph 8.0 mph 90% 0.18 in
00:09 57.4 °F 54.5 °F 30.05 in SW 4.0 mph 7.0 mph 90% 0.18 in
00:14 57.2 °F 54.3 °F 30.04 in SW 3.0 mph 7.0 mph 90% 0.19 in
00:19 57.1 °F 54.5 °F 30.05 in SW 1.0 mph 4.0 mph 91% 0.20 in
00:24 57.0 °F 54.4 °F 30.05 in SW 2.0 mph 4.0 mph 91% 0.20 in
00:29 56.7 °F 54.1 °F 30.06 in West 3.0 mph 4.0 mph 91% 0.20 in
00:34 56.7 °F 54.1 °F 30.06 in WSW 1.0 mph 3.0 mph 91% 0.20 in
00:39 56.5 °F 53.9 °F 30.05 in WSW 2.0 mph 2.0 mph 91% 0.16 in
00:44 55.8 °F 53.2 °F 30.05 in WNW 2.0 mph 4.0 mph 91% 0.10 in
00:49 55.2 °F 52.6 °F 30.05 in WNW 3.0 mph 4.0 mph 91% 0.07 in
00:54 54.9 °F 52.3 °F 30.05 in WNW 2.0 mph 4.0 mph 91% 0.04 in
00:59 54.5 °F 51.9 °F 30.06 in WNW 1.0 mph 3.0 mph 91% 0.03 in
01:04 54.4 °F 52.1 °F 30.05 in WNW 1.0 mph 3.0 mph 92% 0.03 in
01:09 54.4 °F 52.1 °F 30.05 in Calm   2.0 mph 92% 0.03 in
01:14 54.4 °F 52.1 °F 30.05 in WSW 3.0 mph 3.0 mph 92% 0.03 in
01:19 54.2 °F 51.9 °F 30.05 in SW 1.0 mph 5.0 mph 92% 0.02 in
01:24 53.9 °F 51.6 °F 30.05 in SW 2.0 mph 5.0 mph 92% 0.02 in
01:29 53.8 °F 51.5 °F 30.05 in SSW 3.0 mph 7.0 mph 92% 0.01 in
01:34 53.6 °F 51.3 °F 30.05 in SSW 2.0 mph 4.0 mph 92% 0.01 in
01:39 53.4 °F 51.1 °F 30.05 in SSW 2.0 mph 5.0 mph 92% 0.01 in
01:44 53.2 °F 50.9 °F 30.05 in South 2.0 mph 6.0 mph 92% 0.01 in
01:49 53.0 °F 50.7 °F 30.05 in SSW 2.0 mph 6.0 mph 92% 0.02 in
01:54 53.0 °F 50.7 °F 30.05 in SSW 5.0 mph 8.0 mph 92% 0.03 in
01:59 53.0 °F 50.7 °F 30.05 in SW 4.0 mph 8.0 mph 92% 0.05 in
02:04 52.8 °F 50.5 °F 30.06 in SW 3.0 mph 8.0 mph 92% 0.05 in
02:09 52.8 °F 50.5 °F 30.06 in SW 3.0 mph 8.0 mph 92% 0.06 in
02:14 52.6 °F 50.3 °F 30.06 in SW 3.0 mph 7.0 mph 92% 0.06 in
02:19 52.6 °F 50.3 °F 30.06 in SW 6.0 mph 7.0 mph 92% 0.07 in
02:24 52.5 °F 50.2 °F 30.05 in SW 3.0 mph 7.0 mph 92% 0.08 in
02:29 52.4 °F 50.4 °F 30.05 in SSW 2.0 mph 5.0 mph 93% 0.08 in
02:34 52.3 °F 50.3 °F 30.04 in South 1.0 mph 4.0 mph 93% 0.09 in
02:39 52.2 °F 50.2 °F 30.04 in Calm   3.0 mph 93% 0.09 in
02:44 52.1 °F 50.1 °F 30.04 in Calm     93% 0.09 in
02:49 52.1 °F 50.1 °F 30.04 in South 1.0 mph 2.0 mph 93% 0.08 in
02:54 52.2 °F 50.2 °F 30.04 in Calm   2.0 mph 93% 0.07 in
02:59 52.0 °F 50.0 °F 30.04 in Calm     93% 0.05 in
03:04 51.9 °F 49.9 °F 30.04 in Calm     93% 0.05 in
03:09 51.8 °F 49.8 °F 30.03 in Calm     93% 0.04 in
03:14 51.7 °F 49.7 °F 30.03 in Calm     93% 0.03 in
03:20 51.7 °F 49.7 °F 30.03 in Calm     93% 0.02 in
03:29 52.1 °F 50.1 °F 30.03 in South 3.0 mph 3.0 mph 93% 0.01 in
03:34 52.9 °F 51.2 °F 30.03 in South 2.0 mph 5.0 mph 94% 0.00 in
03:39 53.8 °F 52.1 °F 30.03 in South 3.0 mph 5.0 mph 94% 0.00 in
03:44 54.4 °F 52.7 °F 30.03 in SSW 3.0 mph 6.0 mph 94% 0.00 in
03:49 54.9 °F 53.2 °F 30.03 in SSW 3.0 mph 7.0 mph 94% 0.00 in
03:54 55.2 °F 53.5 °F 30.03 in SSW 3.0 mph 7.0 mph 94% 0.00 in
03:59 55.4 °F 53.4 °F 30.04 in SSW 3.0 mph 7.0 mph 93% 0.00 in
04:09 56.0 °F 54.0 °F 30.04 in SSW 6.0 mph 8.0 mph 93% 0.00 in
04:14 56.3 °F 54.3 °F 30.04 in SSW 4.0 mph 8.0 mph 93% 0.00 in
04:19 56.5 °F 54.5 °F 30.04 in SSW 4.0 mph 7.0 mph 93% 0.01 in
04:24 56.8 °F 54.5 °F 30.04 in SSW 4.0 mph 9.0 mph 92% 0.01 in
04:29 57.0 °F 54.7 °F 30.04 in WSW 2.0 mph 9.0 mph 92% 0.01 in
04:34 57.0 °F 54.7 °F 30.05 in SSW 3.0 mph 7.0 mph 92% 0.02 in
04:44 56.9 °F 54.3 °F 30.05 in SSW 4.0 mph 8.0 mph 91% 0.02 in
04:49 56.9 °F 54.3 °F 30.05 in SSW 4.0 mph 7.0 mph 91% 0.02 in
04:54 56.9 °F 54.3 °F 30.05 in SSW 2.0 mph 6.0 mph 91% 0.03 in
04:59 57.1 °F 54.5 °F 30.05 in SW 5.0 mph 9.0 mph 91% 0.03 in
05:04 57.1 °F 54.5 °F 30.05 in SW 2.0 mph 11.0 mph 91% 0.03 in
05:09 57.1 °F 54.5 °F 30.05 in SSW 3.0 mph 7.0 mph 91% 0.03 in
05:14 57.1 °F 54.2 °F 30.05 in SW 3.0 mph 7.0 mph 90% 0.03 in
05:19 57.1 °F 54.2 °F 30.05 in SSW 3.0 mph 7.0 mph 90% 0.02 in
05:24 57.2 °F 54.3 °F 30.05 in SSW 3.0 mph 6.0 mph 90% 0.02 in
05:29 57.3 °F 54.4 °F 30.05 in SSW 3.0 mph 6.0 mph 90% 0.02 in
05:34 57.3 °F 54.4 °F 30.05 in SSW 2.0 mph 7.0 mph 90% 0.01 in
05:39 57.5 °F 54.3 °F 30.05 in SSW 3.0 mph 5.0 mph 89% 0.01 in
05:44 57.5 °F 54.3 °F 30.05 in SW 1.0 mph 6.0 mph 89% 0.01 in
05:49 57.6 °F 54.4 °F 30.05 in SSW 3.0 mph 6.0 mph 89% 0.01 in
05:54 57.7 °F 54.2 °F 30.05 in SW 5.0 mph 6.0 mph 88% 0.00 in
05:59 58.0 °F 54.5 °F 30.05 in South 5.0 mph 8.0 mph 88% 0.00 in
06:04 58.0 °F 54.2 °F 30.05 in SSE 5.0 mph 8.0 mph 87% 0.00 in
06:09 58.1 °F 54.2 °F 30.05 in South 3.0 mph 5.0 mph 87% 0.00 in
06:14 58.3 °F 54.4 °F 30.05 in SSW 4.0 mph 8.0 mph 87% 0.00 in
06:19 58.5 °F 54.3 °F 30.05 in SSW 4.0 mph 8.0 mph 86% 0.00 in
06:24 58.6 °F 54.1 °F 30.05 in SW 4.0 mph 7.0 mph 85% 0.00 in
06:29 58.8 °F 54.3 °F 30.05 in SSW 4.0 mph 10.0 mph 85% 0.00 in
06:34 58.9 °F 54.1 °F 30.05 in South 8.0 mph 12.0 mph 84% 0.01 in
06:39 58.8 °F 54.0 °F 30.05 in SW 9.0 mph 9.0 mph 84% 0.01 in
06:44 58.7 °F 53.9 °F 30.05 in WSW 3.0 mph 12.0 mph 84% 0.02 in
06:49 58.6 °F 54.1 °F 30.05 in SW 5.0 mph 12.0 mph 85% 0.03 in
06:54 58.4 °F 53.9 °F 30.05 in SSW 5.0 mph 7.0 mph 85% 0.03 in
06:59 58.1 °F 53.6 °F 30.05 in SSW 5.0 mph 10.0 mph 85% 0.04 in
07:04 58.0 °F 53.8 °F 30.05 in WSW 8.0 mph 8.0 mph 86% 0.04 in
07:09 57.9 °F 53.7 °F 30.06 in SW 3.0 mph 10.0 mph 86% 0.04 in
07:14 57.7 °F 53.5 °F 30.06 in SW 4.0 mph 5.0 mph 86% 0.04 in
07:19 57.7 °F 53.9 °F 30.06 in SSW 3.0 mph 6.0 mph 87% 0.04 in
07:24 57.6 °F 53.8 °F 30.05 in SSW 3.0 mph 7.0 mph 87% 0.04 in
07:29 57.6 °F 53.8 °F 30.06 in SSW 4.0 mph 7.0 mph 87% 0.05 in
07:34 57.6 °F 53.8 °F 30.05 in SW 3.0 mph 7.0 mph 87% 0.05 in
07:39 57.5 °F 54.0 °F 30.05 in SSW 5.0 mph 6.0 mph 88% 0.05 in
07:44 57.5 °F 54.0 °F 30.05 in SSW 3.0 mph 6.0 mph 88% 0.04 in
07:49 57.7 °F 54.2 °F 30.06 in SSW 4.0 mph 9.0 mph 88% 0.03 in
07:54 57.7 °F 54.2 °F 30.05 in SSW 4.0 mph 8.0 mph 88% 0.03 in
07:59 58.0 °F 54.5 °F 30.05 in SW 5.0 mph 11.0 mph 88% 0.02 in
08:04 58.2 °F 54.7 °F 30.06 in WSW 10.0 mph 12.0 mph 88% 0.03 in
08:09 58.2 °F 54.7 °F 30.06 in SW 9.0 mph 10.0 mph 88% 0.05 in
08:14 58.1 °F 54.6 °F 30.06 in South 2.0 mph 9.0 mph 88% 0.06 in
08:19 57.9 °F 54.7 °F 30.06 in SSW 4.0 mph 8.0 mph 89% 0.06 in
08:24 57.6 °F 54.4 °F 30.07 in SW 4.0 mph 8.0 mph 89% 0.07 in
08:29 57.5 °F 54.3 °F 30.07 in SW 3.0 mph 7.0 mph 89% 0.08 in
08:34 57.3 °F 54.1 °F 30.06 in SSW 4.0 mph 8.0 mph 89% 0.09 in
08:39 57.3 °F 54.4 °F 30.07 in SSW 4.0 mph 8.0 mph 90% 0.10 in
08:44 57.3 °F 54.4 °F 30.07 in SW 5.0 mph 9.0 mph 90% 0.10 in
08:49 57.2 °F 54.3 °F 30.07 in SSW 4.0 mph 10.0 mph 90% 0.12 in
08:54 57.1 °F 54.2 °F 30.07 in SSW 4.0 mph 10.0 mph 90% 0.14 in
08:59 57.0 °F 54.1 °F 30.07 in SSW 4.0 mph 8.0 mph 90% 0.15 in
09:04 57.0 °F 54.1 °F 30.07 in SSW 7.0 mph 11.0 mph 90% 0.15 in
09:09 57.0 °F 54.4 °F 30.07 in SSW 5.0 mph 11.0 mph 91% 0.14 in
09:14 57.1 °F 54.5 °F 30.07 in West 4.0 mph 12.0 mph 91% 0.14 in
09:19 57.2 °F 54.6 °F 30.07 in SSW 7.0 mph 9.0 mph 91% 0.15 in
09:24 57.2 °F 54.6 °F 30.07 in SW 5.0 mph 11.0 mph 91% 0.14 in
09:29 57.1 °F 54.5 °F 30.07 in SW 5.0 mph 11.0 mph 91% 0.13 in
09:34 57.2 °F 54.6 °F 30.07 in SSW 4.0 mph 8.0 mph 91% 0.11 in
09:39 57.3 °F 55.0 °F 30.07 in SSW 3.0 mph 8.0 mph 92% 0.10 in
09:44 57.5 °F 55.2 °F 30.07 in SSW 5.0 mph 11.0 mph 92% 0.10 in
09:49 57.7 °F 55.4 °F 30.07 in SSW 4.0 mph 10.0 mph 92% 0.09 in
09:54 58.0 °F 55.7 °F 30.07 in SSW 6.0 mph 9.0 mph 92% 0.07 in
09:59 58.2 °F 55.9 °F 30.07 in SSW 5.0 mph 9.0 mph 92% 0.06 in
10:04 58.4 °F 56.1 °F 30.06 in SW 3.0 mph 10.0 mph 92% 0.06 in
10:09 58.5 °F 56.2 °F 30.06 in SSW 5.0 mph 11.0 mph 92% 0.05 in
10:14 58.7 °F 56.1 °F 30.06 in South 3.0 mph 10.0 mph 91% 0.04 in
10:19 58.9 °F 56.3 °F 30.06 in South 4.0 mph 15.0 mph 91% 0.03 in
10:24 58.9 °F 56.3 °F 30.06 in SW 7.0 mph 9.0 mph 91% 0.03 in
10:29 59.1 °F 56.5 °F 30.06 in SW 6.0 mph 11.0 mph 91% 0.02 in
10:34 59.1 °F 56.2 °F 30.06 in SW 5.0 mph 11.0 mph 90% 0.03 in
10:39 59.1 °F 56.2 °F 30.06 in WSW 4.0 mph 8.0 mph 90% 0.03 in
10:44 59.1 °F 56.2 °F 30.06 in SSW 2.0 mph 7.0 mph 90% 0.03 in
10:49 59.0 °F 56.1 °F 30.06 in SSW 4.0 mph 6.0 mph 90% 0.02 in
10:54 59.0 °F 56.1 °F 30.06 in SSW 3.0 mph 6.0 mph 90% 0.02 in
10:59 59.3 °F 56.4 °F 30.05 in SSW 3.0 mph 6.0 mph 90% 0.03 in
11:04 59.7 °F 56.8 °F 30.05 in South 2.0 mph 6.0 mph 90% 0.02 in
11:09 59.9 °F 57.0 °F 30.05 in South 2.0 mph 4.0 mph 90% 0.02 in
11:14 60.2 °F 56.9 °F 30.05 in South 2.0 mph 4.0 mph 89% 0.02 in
11:19 60.2 °F 56.9 °F 30.05 in South 3.0 mph 5.0 mph 89% 0.02 in
11:24 60.4 °F 57.1 °F 30.04 in South 3.0 mph 4.0 mph 89% 0.02 in
11:29 60.8 °F 57.5 °F 30.04 in South 2.0 mph 4.0 mph 89% 0.02 in
11:34 61.2 °F 57.6 °F 30.04 in South 2.0 mph 4.0 mph 88% 0.01 in
11:39 61.7 °F 58.1 °F 30.04 in South 1.0 mph 5.0 mph 88% 0.01 in
11:44 62.2 °F 58.3 °F 30.04 in SSW 2.0 mph 5.0 mph 87% 0.01 in
11:49 62.5 °F 58.3 °F 30.03 in SSW 2.0 mph 4.0 mph 86% 0.01 in
11:54 63.0 °F 58.4 °F 30.03 in South 2.0 mph 4.0 mph 85% 0.01 in
11:59 63.8 °F 58.5 °F 30.03 in South 2.0 mph 6.0 mph 83% 0.00 in
12:04 64.6 °F 58.6 °F 30.03 in South 3.0 mph 7.0 mph 81% 0.00 in
12:09 65.2 °F 58.9 °F 30.02 in SSW 3.0 mph 7.0 mph 80% 0.00 in
12:14 65.3 °F 58.6 °F 30.02 in SSW 5.0 mph 10.0 mph 79% 0.00 in
12:19 65.5 °F 58.5 °F 30.02 in WSW 4.0 mph 9.0 mph 78% 0.00 in
12:24 65.7 °F 58.7 °F 30.03 in South 5.0 mph 6.0 mph 78% 0.00 in
12:29 65.7 °F 58.3 °F 30.02 in SW 3.0 mph 11.0 mph 77% 0.00 in
12:34 65.7 °F 57.9 °F 30.03 in SW 5.0 mph 11.0 mph 76% 0.00 in
12:39 65.6 °F 57.8 °F 30.03 in WSW 5.0 mph 10.0 mph 76% 0.00 in
12:44 65.7 °F 57.9 °F 30.03 in WSW 3.0 mph 10.0 mph 76% 0.00 in
12:49 65.6 °F 57.5 °F 30.03 in WSW 5.0 mph 10.0 mph 75% 0.00 in
12:54 65.5 °F 57.4 °F 30.03 in WNW 4.0 mph 13.0 mph 75% 0.00 in
12:59 65.4 °F 56.9 °F 30.03 in WSW 10.0 mph 12.0 mph 74% 0.00 in
13:04 65.4 °F 56.5 °F 30.03 in WSW 7.0 mph 12.0 mph 73% 0.00 in
13:09 65.3 °F 56.8 °F 30.04 in WSW 7.0 mph 12.0 mph 74% 0.00 in
13:14 64.4 °F 56.7 °F 30.04 in WSW 8.0 mph 18.0 mph 76% 0.02 in
13:19 63.2 °F 56.2 °F 30.05 in WSW 6.0 mph 14.0 mph 78% 0.03 in
13:24 62.3 °F 55.7 °F 30.05 in SW 9.0 mph 18.0 mph 79% 0.03 in
13:29 61.6 °F 55.0 °F 30.05 in SW 12.0 mph 21.0 mph 79% 0.03 in
13:34 60.6 °F 54.4 °F 30.06 in WSW 10.0 mph 21.0 mph 80% 0.03 in
13:39 60.1 °F 54.6 °F 30.06 in WSW 10.0 mph 19.0 mph 82% 0.04 in
13:44 59.8 °F 55.0 °F 30.06 in WSW 10.0 mph 19.0 mph 84% 0.05 in
13:49 59.6 °F 55.1 °F 30.06 in SW 14.0 mph 23.0 mph 85% 0.06 in
13:54 59.2 °F 55.0 °F 30.06 in WSW 10.0 mph 18.0 mph 86% 0.08 in
13:59 58.9 °F 54.7 °F 30.06 in SSW 8.0 mph 14.0 mph 86% 0.08 in
14:04 58.6 °F 54.7 °F 30.06 in SW 9.0 mph 18.0 mph 87% 0.09 in
14:09 58.3 °F 54.8 °F 30.06 in SW 9.0 mph 18.0 mph 88% 0.09 in
14:14 58.2 °F 54.7 °F 30.07 in SW 8.0 mph 17.0 mph 88% 0.07 in
14:19 58.1 °F 54.9 °F 30.07 in SW 8.0 mph 17.0 mph 89% 0.07 in
14:24 57.9 °F 54.7 °F 30.07 in SW 9.0 mph 19.0 mph 89% 0.07 in
14:29 57.6 °F 54.1 °F 30.07 in SW 11.0 mph 19.0 mph 88% 0.07 in
14:34 57.3 °F 53.8 °F 30.07 in WSW 3.0 mph 18.0 mph 88% 0.07 in
14:39 57.1 °F 53.6 °F 30.07 in SW 3.0 mph 13.0 mph 88% 0.07 in
14:44 56.8 °F 53.3 °F 30.07 in WSW 7.0 mph 17.0 mph 88% 0.06 in
14:49 56.3 °F 52.8 °F 30.06 in WSW 9.0 mph 17.0 mph 88% 0.05 in
14:54 55.9 °F 52.4 °F 30.06 in SW 10.0 mph 13.0 mph 88% 0.03 in
14:59 55.9 °F 52.4 °F 30.06 in WSW 8.0 mph 12.0 mph 88% 0.03 in
15:04 56.0 °F 52.5 °F 30.06 in SW 4.0 mph 9.0 mph 88% 0.02 in
15:09 56.3 °F 53.1 °F 30.06 in SW 5.0 mph 10.0 mph 89% 0.02 in
15:14 56.7 °F 53.5 °F 30.06 in SW 5.0 mph 12.0 mph 89% 0.02 in
15:19 56.9 °F 53.4 °F 30.06 in WSW 4.0 mph 12.0 mph 88% 0.01 in
15:24 57.0 °F 53.5 °F 30.06 in West 4.0 mph 7.0 mph 88% 0.01 in
15:29 56.8 °F 53.3 °F 30.07 in West 4.0 mph 7.0 mph 88% 0.01 in
15:34 56.9 °F 53.4 °F 30.07 in WSW 5.0 mph 11.0 mph 88% 0.01 in
15:40 57.0 °F 53.5 °F 30.07 in WSW 6.0 mph 12.0 mph 88% 0.00 in
15:49 57.1 °F 53.6 °F 30.07 in SW 4.0 mph 9.0 mph 88% 0.00 in
15:54 57.0 °F 53.5 °F 30.07 in WSW 5.0 mph 9.0 mph 88% 0.00 in
15:59 56.9 °F 53.4 °F 30.07 in SSW 5.0 mph 8.0 mph 88% 0.00 in
16:04 56.8 °F 53.3 °F 30.07 in SW 5.0 mph 9.0 mph 88% 0.00 in
16:10 56.8 °F 53.3 °F 30.08 in SW 9.0 mph 11.0 mph 88% 0.00 in
16:15 56.8 °F 53.0 °F 30.08 in SW 5.0 mph 11.0 mph 87% 0.00 in
16:24 58.2 °F 54.0 °F 30.08 in WSW 6.0 mph 14.0 mph 86% 0.00 in
16:29 58.9 °F 54.4 °F 30.08 in South 6.0 mph 11.0 mph 85% 0.00 in
16:34 59.5 °F 54.7 °F 30.08 in WSW 10.0 mph 12.0 mph 84% 0.00 in
16:39 59.9 °F 55.1 °F 30.08 in SW 7.0 mph 11.0 mph 84% 0.00 in
16:44 60.3 °F 55.1 °F 30.08 in SW 8.0 mph 13.0 mph 83% 0.00 in
16:49 60.5 °F 55.3 °F 30.09 in SW 7.0 mph 13.0 mph 83% 0.00 in
16:54 60.8 °F 55.6 °F 30.09 in SSW 6.0 mph 13.0 mph 83% 0.00 in
16:59 61.1 °F 55.9 °F 30.08 in SW 6.0 mph 13.0 mph 83% 0.00 in
17:04 61.5 °F 56.0 °F 30.08 in WSW 7.0 mph 12.0 mph 82% 0.00 in
17:09 61.9 °F 56.3 °F 30.08 in SSW 7.0 mph 13.0 mph 82% 0.00 in
17:14 62.0 °F 56.4 °F 30.08 in SW 6.0 mph 15.0 mph 82% 0.00 in
17:19 62.3 °F 56.7 °F 30.08 in SW 7.0 mph 15.0 mph 82% 0.00 in
17:24 62.5 °F 56.9 °F 30.08 in SW 6.0 mph 14.0 mph 82% 0.00 in
17:29 62.9 °F 57.3 °F 30.08 in WSW 5.0 mph 13.0 mph 82% 0.00 in
17:34 63.2 °F 57.6 °F 30.08 in SW 7.0 mph 14.0 mph 82% 0.00 in
17:39 63.2 °F 57.3 °F 30.08 in SW 8.0 mph 18.0 mph 81% 0.00 in
17:44 63.2 °F 57.3 °F 30.09 in SW 8.0 mph 19.0 mph 81% 0.00 in
17:49 63.2 °F 57.3 °F 30.09 in SW 7.0 mph 19.0 mph 81% 0.00 in
17:54 63.2 °F 57.3 °F 30.09 in SW 4.0 mph 11.0 mph 81% 0.00 in
17:59 63.3 °F 57.4 °F 30.09 in SSW 4.0 mph 13.0 mph 81% 0.00 in
18:04 63.3 °F 57.4 °F 30.09 in South 6.0 mph 12.0 mph 81% 0.00 in
18:09 63.1 °F 57.2 °F 30.09 in SSW 5.0 mph 10.0 mph 81% 0.00 in
18:14 63.1 °F 57.5 °F 30.09 in SW 6.0 mph 12.0 mph 82% 0.00 in
18:19 63.2 °F 57.6 °F 30.09 in SW 7.0 mph 15.0 mph 82% 0.00 in
18:24 63.2 °F 57.3 °F 30.09 in SW 10.0 mph 11.0 mph 81% 0.00 in
18:29 63.1 °F 57.5 °F 30.09 in South 3.0 mph 12.0 mph 82% 0.00 in
18:34 63.0 °F 57.1 °F 30.09 in SW 5.0 mph 11.0 mph 81% 0.00 in
18:39 62.9 °F 57.3 °F 30.09 in SW 5.0 mph 9.0 mph 82% 0.00 in
18:44 63.0 °F 57.4 °F 30.08 in SSW 4.0 mph 9.0 mph 82% 0.00 in
18:49 62.9 °F 57.3 °F 30.08 in SSW 3.0 mph 7.0 mph 82% 0.00 in
18:54 62.7 °F 57.1 °F 30.08 in SSW 2.0 mph 6.0 mph 82% 0.00 in
18:59 62.5 °F 56.9 °F 30.08 in SSW 3.0 mph 5.0 mph 82% 0.00 in
19:04 62.5 °F 57.3 °F 30.08 in SSW 3.0 mph 6.0 mph 83% 0.00 in
19:09 62.5 °F 57.3 °F 30.08 in SSW 2.0 mph 5.0 mph 83% 0.00 in
19:14 62.7 °F 57.5 °F 30.08 in SSW 3.0 mph 4.0 mph 83% 0.00 in
19:19 62.7 °F 57.5 °F 30.08 in SSW 3.0 mph 6.0 mph 83% 0.00 in
19:24 62.7 °F 57.5 °F 30.07 in SW 3.0 mph 4.0 mph 83% 0.00 in
19:29 62.6 °F 57.4 °F 30.07 in SW 1.0 mph 4.0 mph 83% 0.00 in
19:34 62.6 °F 57.4 °F 30.08 in SSW 2.0 mph 5.0 mph 83% 0.00 in
19:39 62.5 °F 57.3 °F 30.07 in SSW 1.0 mph 4.0 mph 83% 0.00 in
19:44 62.5 °F 57.3 °F 30.07 in SSW 2.0 mph 4.0 mph 83% 0.00 in
19:49 62.6 °F 57.4 °F 30.07 in SSW 2.0 mph 5.0 mph 83% 0.00 in
19:54 63.0 °F 57.4 °F 30.06 in SSW 3.0 mph 6.0 mph 82% 0.00 in
19:59 63.3 °F 57.4 °F 30.06 in SSW 3.0 mph 7.0 mph 81% 0.00 in
20:04 63.5 °F 57.2 °F 30.06 in SSW 3.0 mph 7.0 mph 80% 0.00 in
20:09 63.9 °F 57.3 °F 30.06 in SSW 3.0 mph 6.0 mph 79% 0.00 in
20:14 64.1 °F 57.1 °F 30.06 in SSW 3.0 mph 7.0 mph 78% 0.00 in
20:19 64.2 °F 57.2 °F 30.06 in SSW 4.0 mph 6.0 mph 78% 0.00 in
20:24 64.3 °F 57.3 °F 30.05 in South 2.0 mph 5.0 mph 78% 0.00 in
20:29 64.5 °F 57.1 °F 30.05 in SSW 4.0 mph 8.0 mph 77% 0.00 in
20:34 64.9 °F 57.2 °F 30.05 in SSW 3.0 mph 8.0 mph 76% 0.00 in
20:39 65.2 °F 57.1 °F 30.05 in South 3.0 mph 8.0 mph 75% 0.00 in
20:44 65.4 °F 56.9 °F 30.05 in SSW 4.0 mph 7.0 mph 74% 0.00 in
20:49 65.7 °F 56.8 °F 30.05 in SSW 2.0 mph 7.0 mph 73% 0.00 in
20:54 65.6 °F 56.7 °F 30.05 in SSW 4.0 mph 8.0 mph 73% 0.00 in
20:59 65.6 °F 56.7 °F 30.05 in SSW 4.0 mph 9.0 mph 73% 0.00 in
21:04 65.7 °F 56.4 °F 30.05 in SSW 5.0 mph 9.0 mph 72% 0.00 in
21:09 65.5 °F 56.2 °F 30.05 in South 4.0 mph 9.0 mph 72% 0.00 in
21:14 65.4 °F 56.1 °F 30.05 in SSW 4.0 mph 10.0 mph 72% 0.00 in
21:19 65.4 °F 56.1 °F 30.04 in South 2.0 mph 9.0 mph 72% 0.00 in
21:24 65.3 °F 56.0 °F 30.04 in South 4.0 mph 8.0 mph 72% 0.00 in
21:29 65.3 °F 55.7 °F 30.04 in SSW 4.0 mph 9.0 mph 71% 0.00 in
21:34 65.2 °F 55.6 °F 30.04 in South 3.0 mph 8.0 mph 71% 0.00 in
21:39 65.1 °F 55.5 °F 30.04 in South 5.0 mph 10.0 mph 71% 0.00 in
21:44 65.2 °F 55.6 °F 30.03 in SSW 6.0 mph 9.0 mph 71% 0.00 in
21:49 65.5 °F 55.8 °F 30.04 in South 5.0 mph 9.0 mph 71% 0.00 in
21:54 65.7 °F 55.6 °F 30.04 in South 4.0 mph 8.0 mph 70% 0.00 in
21:59 65.4 °F 55.4 °F 30.04 in SSW 4.0 mph 8.0 mph 70% 0.00 in
22:04 65.4 °F 55.4 °F 30.04 in SSW 4.0 mph 10.0 mph 70% 0.00 in
22:09 65.5 °F 55.5 °F 30.04 in SSW 4.0 mph 10.0 mph 70% 0.00 in
22:14 65.6 °F 55.5 °F 30.04 in SSW 4.0 mph 8.0 mph 70% 0.00 in
22:19 65.6 °F 55.5 °F 30.04 in SSW 5.0 mph 10.0 mph 70% 0.00 in
22:24 65.6 °F 55.2 °F 30.04 in South 2.0 mph 9.0 mph 69% 0.00 in
22:29 66.0 °F 55.1 °F 30.04 in SSW 4.0 mph 11.0 mph 68% 0.00 in
22:34 66.6 °F 55.3 °F 30.04 in SW 10.0 mph 15.0 mph 67% 0.00 in
22:39 67.1 °F 55.4 °F 30.04 in South 4.0 mph 14.0 mph 66% 0.00 in
22:44 67.1 °F 55.4 °F 30.04 in West 6.0 mph 14.0 mph 66% 0.00 in
22:49 67.1 °F 54.9 °F 30.04 in South 8.0 mph 9.0 mph 65% 0.00 in
22:54 67.1 °F 54.9 °F 30.05 in SW 13.0 mph 15.0 mph 65% 0.00 in
22:59 67.2 °F 55.0 °F 30.05 in SSW 7.0 mph 16.0 mph 65% 0.00 in
23:04 67.2 °F 55.0 °F 30.05 in SSW 7.0 mph 16.0 mph 65% 0.00 in
23:09 67.4 °F 54.8 °F 30.05 in SSW 7.0 mph 26.0 mph 64% 0.00 in
23:14 67.3 °F 54.7 °F 30.05 in SSW 6.0 mph 11.0 mph 64% 0.00 in
23:19 67.2 °F 54.6 °F 30.05 in South 9.0 mph 14.0 mph 64% 0.00 in
23:24 67.2 °F 54.6 °F 30.05 in South 4.0 mph 14.0 mph 64% 0.00 in
23:29 67.2 °F 54.6 °F 30.05 in SSW 6.0 mph 19.0 mph 64% 0.00 in
23:34 67.3 °F 54.7 °F 30.05 in SSW 6.0 mph 15.0 mph 64% 0.00 in
23:39 67.2 °F 54.6 °F 30.05 in SSW 8.0 mph 14.0 mph 64% 0.00 in
23:44 67.2 °F 54.6 °F 30.05 in SW 8.0 mph 15.0 mph 64% 0.00 in
23:49 67.3 °F 54.3 °F 30.04 in SSW 9.0 mph 18.0 mph 63% 0.00 in
23:54 67.4 °F 54.4 °F 30.05 in SSW 8.0 mph 18.0 mph 63% 0.00 in
23:59 67.2 °F 54.2 °F 30.05 in SSW 7.0 mph 15.0 mph 63% 0.00 in
Buffalo, New York, USA
Compliments of Weather Underground - 2.5 mb